| time (UTC) | temp C | wind direction | speed KPH | gust KPH | rain 1hr cm | rain 24hr cm | rain mn cm | humidity % | barometer mb |
| 20260905162833 | 29 | 218 | 1.6 | 8.0 | 0.00 | 0.00 | 0.00 | 60 | 1015.5 |
| 20260905161825 | 28 | 232 | 3.2 | 9.7 | 0.00 | 0.00 | 0.00 | 60 | 1015.5 |
| 20260905160817 | 28 | 178 | 1.6 | 6.4 | 0.00 | 0.00 | 0.00 | 62 | 1015.4 |
| 20260905155841 | 27 | 178 | 3.2 | 8.0 | 0.00 | 0.00 | 0.00 | 61 | 1015.3 |
| 20260905154825 | 27 | 180 | 3.2 | 6.4 | 0.00 | 0.00 | 0.00 | 64 | 1015.4 |
| 20260905153818 | 27 | 186 | 1.6 | 8.0 | 0.00 | 0.00 | 0.00 | 63 | 1015.5 |
| 20260905152837 | 26 | 184 | 1.6 | 4.8 | 0.00 | 0.00 | 0.00 | 67 | 1015.6 |
| 20260905151830 | 26 | 186 | 3.2 | 11.3 | 0.00 | 0.00 | 0.00 | 66 | 1015.5 |
| 20260905150821 | 26 | 69 | 0.0 | 6.4 | 0.00 | 0.00 | 0.00 | 67 | 1015.6 |
| 20260905145844 | 26 | 179 | 6.4 | 11.3 | 0.00 | 0.00 | 0.00 | 67 | 1015.3 |
| 20260905144844 | 25 | 75 | 3.2 | 8.0 | 0.00 | 0.00 | 0.00 | 68 | 1015.3 |
| 20260905143817 | 25 | 105 | 1.6 | 4.8 | 0.00 | 0.00 | 0.00 | 69 | 1015.5 |
| 20260905142834 | 25 | 145 | 0.0 | 4.8 | 0.00 | 0.00 | 0.00 | 70 | 1015.4 |
| 20260905141826 | 24 | 133 | 1.6 | 6.4 | 0.00 | 0.00 | 0.00 | 72 | 1015.5 |
| 20260905140817 | 23 | 171 | 1.6 | 4.8 | 0.00 | 0.00 | 0.00 | 74 | 1015.8 |
| 20260905135822 | 23 | 77 | 1.6 | 6.4 | 0.00 | 0.00 | 0.00 | 75 | 1016.0 |
| 20260905134825 | 22 | 117 | 0.0 | 3.2 | 0.00 | 0.00 | 0.00 | 77 | 1016.5 |
| 20260905133819 | 22 | 116 | 0.0 | 3.2 | 0.00 | 0.00 | 0.00 | 77 | 1016.8 |
| 20260905132838 | 22 | 117 | 0.0 | 3.2 | 0.00 | 0.00 | 0.00 | 77 | 1017.1 |
| 20260905131837 | 22 | 117 | 0.0 | 4.8 | 0.00 | 0.00 | 0.00 | 77 | 1017.1 |
| 20260905130829 | 21 | 150 | 0.0 | 8.0 | 0.00 | 0.00 | 0.00 | 78 | 1017.4 |
| 20260905125833 | 21 | 146 | 1.6 | 9.7 | 0.00 | 0.00 | 0.00 | 78 | 1017.8 |
| 20260905124838 | 21 | 180 | 1.6 | 8.0 | 0.00 | 0.00 | 0.00 | 78 | 1017.7 |
| 20260905123830 | 21 | 181 | 3.2 | 8.0 | 0.00 | 0.00 | 0.00 | 77 | 1017.6 |
| 20260905122821 | 21 | 67 | 1.6 | 4.8 | 0.00 | 0.00 | 0.00 | 77 | 1017.4 |
| 20260905121840 | 21 | 67 | 0.0 | 6.4 | 0.00 | 0.00 | 0.00 | 76 | 1017.3 |
| 20260905120828 | 21 | 67 | 1.6 | 12.9 | 0.00 | 0.00 | 0.00 | 76 | 1017.0 |
| 20260905115816 | 21 | 70 | 3.2 | 9.7 | 0.00 | 0.00 | 0.00 | 76 | 1016.9 |
| 20260905114817 | 21 | 74 | 3.2 | 16.1 | 0.00 | 0.00 | 0.00 | 76 | 1016.6 |
| 20260905113838 | 21 | 76 | 3.2 | 8.0 | 0.00 | 0.00 | 0.00 | 76 | 1016.5 |
| 20260905112851 | 21 | 68 | 1.6 | 8.0 | 0.00 | 0.00 | 0.00 | 75 | 1016.7 |
| 20260905111825 | 21 | 78 | 4.8 | 14.5 | 0.00 | 0.00 | 0.00 | 75 | 1016.7 |
| 20260905110817 | 22 | 16 | 6.4 | 19.3 | 0.00 | 0.00 | 0.00 | 75 | 1017.2 |
| 20260905105818 | 22 | 13 | 8.0 | 22.5 | 0.00 | 0.00 | 0.00 | 75 | 1017.4 |
| 20260905104841 | 22 | 300 | 8.0 | 30.6 | 0.00 | 0.00 | 0.00 | 75 | 1017.4 |
| 20260905103832 | 22 | 331 | 12.9 | 32.2 | 0.00 | 0.00 | 0.00 | 79 | 1016.6 |
| 20260905102853 | 23 | 350 | 0.0 | 3.2 | 0.00 | 0.00 | 0.00 | 80 | 1014.7 |
| 20260905101852 | 22 | 350 | 0.0 | 3.2 | 0.00 | 0.00 | 0.00 | 81 | 1014.8 |
| 20260905100821 | 22 | 350 | 0.0 | 0.0 | 0.00 | 0.00 | 0.00 | 81 | 1014.8 |
| 20260905095822 | 22 | 350 | 0.0 | 1.6 | 0.00 | 0.00 | 0.00 | 81 | 1014.9 |
| 20260905094847 | 22 | 350 | 0.0 | 0.0 | 0.00 | 0.00 | 0.00 | 80 | 1015.0 |
| 20260905093845 | 23 | 350 | 0.0 | 0.0 | 0.00 | 0.00 | 0.00 | 80 | 1015.0 |
| 20260905092816 | 23 | 350 | 0.0 | 0.0 | 0.00 | 0.00 | 0.00 | 80 | 1014.6 |
| 20260905091837 | 23 | 350 | 0.0 | 0.0 | 0.00 | 0.00 | 0.00 | 80 | 1014.5 |
| 20260905090827 | 23 | 350 | 0.0 | 0.0 | 0.00 | 0.00 | 0.00 | 80 | 1014.5 |
| 20260905085830 | 23 | 350 | 0.0 | 0.0 | 0.00 | 0.00 | 0.00 | 80 | 1014.6 |
| 20260905084830 | 23 | 350 | 0.0 | 0.0 | 0.00 | 0.00 | 0.00 | 79 | 1014.7 |
| 20260905083821 | 23 | 350 | 0.0 | 0.0 | 0.00 | 0.00 | 0.00 | 79 | 1014.7 |
| 20260905082841 | 23 | 350 | 0.0 | 3.2 | 0.00 | 0.00 | 0.00 | 79 | 1014.6 |
| 20260905081834 | 23 | 350 | 0.0 | 4.8 | 0.00 | 0.00 | 0.00 | 79 | 1014.4 |
| 20260905080852 | 23 | 350 | 1.6 | 4.8 | 0.00 | 0.00 | 0.00 | 79 | 1014.3 |
| 20260905075834 | 23 | 350 | 3.2 | 4.8 | 0.00 | 0.00 | 0.00 | 79 | 1014.1 |
| 20260905074819 | 23 | 350 | 1.6 | 3.2 | 0.00 | 0.00 | 0.00 | 79 | 1014.1 |
| 20260905073837 | 23 | 350 | 3.2 | 4.8 | 0.00 | 0.00 | 0.00 | 79 | 1014.1 |
| 20260905072829 | 23 | 350 | 0.0 | 3.2 | 0.00 | 0.00 | 0.00 | 79 | 1014.2 |
| 20260905071823 | 23 | 350 | 0.0 | 4.8 | 0.00 | 0.00 | 0.00 | 79 | 1014.1 |
| 20260905070815 | 23 | 350 | 1.6 | 4.8 | 0.00 | 0.00 | 0.00 | 79 | 1014.2 |
| 20260905065837 | 24 | 350 | 3.2 | 6.4 | 0.00 | 0.00 | 0.00 | 78 | 1014.3 |
| 20260905064838 | 24 | 350 | 1.6 | 4.8 | 0.00 | 0.00 | 0.00 | 78 | 1014.5 |
| 20260905063830 | 24 | 350 | 3.2 | 4.8 | 0.00 | 0.00 | 0.00 | 78 | 1014.5 |
| 20260905062823 | 24 | 350 | 3.2 | 6.4 | 0.00 | 0.00 | 0.00 | 77 | 1014.7 |
| 20260905061842 | 24 | 351 | 1.6 | 4.8 | 0.00 | 0.00 | 0.00 | 77 | 1014.9 |
| 20260905060831 | 24 | 355 | 3.2 | 6.4 | 0.00 | 0.00 | 0.00 | 77 | 1014.9 |
| 20260905055833 | 24 | 355 | 3.2 | 6.4 | 0.00 | 0.00 | 0.00 | 77 | 1015.0 |
| 20260905054853 | 24 | 355 | 3.2 | 6.4 | 0.00 | 0.00 | 0.00 | 77 | 1015.2 |
| 20260905053851 | 23 | 360 | 3.2 | 6.4 | 0.00 | 0.00 | 0.00 | 78 | 1015.3 |
| 20260905052821 | 23 | 360 | 0.0 | 0.0 | 0.00 | 0.00 | 0.00 | 79 | 1015.4 |
| 20260905051838 | 23 | 360 | 0.0 | 0.0 | 0.00 | 0.00 | 0.00 | 80 | 1015.5 |
| 20260905050834 | 23 | 360 | 0.0 | 0.0 | 0.00 | 0.00 | 0.00 | 79 | 1015.6 |
| 20260905045818 | 23 | 360 | 0.0 | 0.0 | 0.00 | 0.00 | 0.00 | 80 | 1015.7 |
| 20260905044821 | 23 | 360 | 0.0 | 0.0 | 0.00 | 0.00 | 0.00 | 79 | 1015.7 |
| 20260905043841 | 23 | 360 | 0.0 | 0.0 | 0.00 | 0.00 | 0.00 | 80 | 1015.7 |
| 20260905042832 | 23 | 360 | 0.0 | 0.0 | 0.00 | 0.00 | 0.00 | 80 | 1015.8 |
| 20260905041827 | 23 | 360 | 0.0 | 0.0 | 0.00 | 0.00 | 0.00 | 79 | 1015.7 |
| 20260905040822 | 23 | 360 | 0.0 | 0.0 | 0.00 | 0.00 | 0.00 | 79 | 1015.7 |
| 20260905035827 | 23 | 360 | 0.0 | 0.0 | 0.00 | 0.00 | 0.00 | 79 | 1015.8 |
| 20260905034831 | 23 | 360 | 0.0 | 0.0 | 0.00 | 0.00 | 0.00 | 79 | 1015.7 |
| 20260905033821 | 23 | 360 | 0.0 | 0.0 | 0.00 | 0.00 | 0.00 | 79 | 1015.6 |
| 20260905032838 | 23 | 360 | 0.0 | 0.0 | 0.00 | 0.00 | 0.00 | 79 | 1015.6 |
| 20260905031832 | 24 | 360 | 0.0 | 0.0 | 0.00 | 0.00 | 0.00 | 79 | 1015.7 |
| 20260905030824 | 24 | 360 | 0.0 | 0.0 | 0.00 | 0.00 | 0.00 | 79 | 1015.6 |
| 20260905025830 | 24 | 360 | 0.0 | 0.0 | 0.00 | 0.00 | 0.00 | 79 | 1015.6 |
| 20260905024858 | 24 | 360 | 0.0 | 0.0 | 0.00 | 0.00 | 0.00 | 78 | 1015.6 |
| 20260905023832 | 25 | 360 | 0.0 | 0.0 | 0.00 | 0.00 | 0.00 | 79 | 1015.6 |
| 20260905022851 | 25 | 360 | 0.0 | 0.0 | 0.00 | 0.00 | 0.00 | 78 | 1015.6 |
| 20260905021850 | 25 | 360 | 0.0 | 0.0 | 0.00 | 0.00 | 0.00 | 78 | 1015.6 |
| 20260905020820 | 25 | 360 | 0.0 | 0.0 | 0.00 | 0.00 | 0.00 | 78 | 1015.6 |
| 20260905015826 | 25 | 360 | 0.0 | 1.6 | 0.00 | 0.00 | 0.00 | 78 | 1015.5 |
| 20260905014829 | 25 | 360 | 0.0 | 3.2 | 0.00 | 0.00 | 0.00 | 78 | 1015.5 |
| 20260905013822 | 25 | 360 | 0.0 | 0.0 | 0.00 | 0.00 | 0.00 | 78 | 1015.4 |
| 20260905012840 | 25 | 360 | 0.0 | 0.0 | 0.00 | 0.00 | 0.00 | 78 | 1015.4 |
| 20260905011832 | 26 | 360 | 0.0 | 0.0 | 0.00 | 0.00 | 0.00 | 77 | 1015.4 |
| 20260905010824 | 26 | 360 | 0.0 | 0.0 | 0.00 | 0.00 | 0.00 | 77 | 1015.3 |
| 20260905005829 | 26 | 360 | 0.0 | 0.0 | 0.00 | 0.00 | 0.00 | 75 | 1015.3 |
| 20260905004829 | 27 | 360 | 0.0 | 0.0 | 0.00 | 0.00 | 0.00 | 74 | 1015.3 |
| 20260905003823 | 27 | 360 | 0.0 | 0.0 | 0.00 | 0.00 | 0.00 | 73 | 1015.1 |
| 20260905002900 | 27 | 360 | 0.0 | 0.0 | 0.00 | 0.00 | 0.00 | 72 | 1015.2 |
| 20260905001830 | 27 | 360 | 0.0 | 4.8 | 0.00 | 0.00 | 0.00 | 71 | 1015.0 |
| 20260905000820 | 27 | 360 | 1.6 | 4.8 | 0.00 | 0.00 | 0.00 | 72 | 1015.1 |
| 20260904235844 | 28 | 360 | 1.6 | 4.8 | 0.00 | 0.00 | 0.00 | 71 | 1015.0 |
| 20260904234827 | 28 | 360 | 0.0 | 3.2 | 0.00 | 0.00 | 0.00 | 70 | 1014.9 |
| 20260904233819 | 28 | 360 | 0.0 | 3.2 | 0.00 | 0.00 | 0.00 | 68 | 1014.9 |
| 20260904232838 | 28 | 360 | 0.0 | 0.0 | 0.00 | 0.00 | 0.00 | 69 | 1014.7 |
| 20260904231836 | 29 | 360 | 0.0 | 0.0 | 0.00 | 0.00 | 0.00 | 68 | 1014.6 |
| 20260904230827 | 29 | 360 | 0.0 | 4.8 | 0.00 | 0.00 | 0.00 | 65 | 1014.5 |
| 20260904225832 | 28 | 360 | 0.0 | 3.2 | 0.00 | 0.00 | 0.00 | 67 | 1014.4 |
| 20260904224834 | 28 | 360 | 1.6 | 4.8 | 0.00 | 0.00 | 0.00 | 67 | 1014.4 |
| 20260904223826 | 28 | 360 | 1.6 | 4.8 | 0.00 | 0.00 | 0.00 | 68 | 1014.6 |
| 20260904222818 | 28 | 360 | 3.2 | 3.2 | 0.00 | 0.00 | 0.00 | 67 | 1014.8 |
| 20260904221837 | 28 | 360 | 0.0 | 6.4 | 0.00 | 0.00 | 0.00 | 67 | 1015.1 |
| 20260904220832 | 28 | 338 | 1.6 | 6.4 | 0.00 | 0.00 | 0.00 | 68 | 1015.9 |
| 20260904215815 | 29 | 13 | 9.7 | 24.1 | 0.00 | 0.00 | 0.00 | 65 | 1016.8 |
| 20260904214854 | 30 | 5 | 8.0 | 29.0 | 0.00 | 0.00 | 0.00 | 56 | 1017.1 |
| 20260904213829 | 33 | 281 | 9.7 | 35.4 | 0.00 | 0.00 | 0.00 | 50 | 1016.8 |
| 20260904212819 | 35 | 347 | 1.6 | 6.4 | 0.00 | 0.00 | 0.00 | 50 | 1015.8 |
| 20260904211838 | 35 | 339 | 1.6 | 8.0 | 0.00 | 0.00 | 0.00 | 49 | 1015.5 |
| 20260904210829 | 36 | 332 | 1.6 | 9.7 | 0.00 | 0.00 | 0.00 | 50 | 1015.2 |
| 20260904205853 | 35 | 317 | 1.6 | 12.9 | 0.00 | 0.00 | 0.00 | 49 | 1015.2 |
| 20260904204835 | 35 | 334 | 3.2 | 9.7 | 0.00 | 0.00 | 0.00 | 48 | 1015.4 |
| 20260904203826 | 35 | 302 | 4.8 | 12.9 | 0.00 | 0.00 | 0.00 | 49 | 1015.4 |
| 20260904202846 | 35 | 329 | 6.4 | 16.1 | 0.00 | 0.00 | 0.00 | 50 | 1015.5 |
| 20260904201840 | 35 | 296 | 6.4 | 14.5 | 0.00 | 0.00 | 0.00 | 49 | 1015.7 |
| 20260904200831 | 35 | 312 | 3.2 | 12.9 | 0.00 | 0.00 | 0.00 | 50 | 1015.8 |
| 20260904195815 | 35 | 315 | 3.2 | 12.9 | 0.00 | 0.00 | 0.00 | 49 | 1015.7 |
| 20260904194837 | 35 | 186 | 3.2 | 14.5 | 0.00 | 0.00 | 0.00 | 49 | 1015.8 |
| 20260904193831 | 35 | 302 | 6.4 | 17.7 | 0.00 | 0.00 | 0.00 | 48 | 1015.8 |
| 20260904192822 | 36 | 295 | 6.4 | 16.1 | 0.00 | 0.00 | 0.00 | 47 | 1016.0 |
| 20260904191814 | 36 | 285 | 8.0 | 17.7 | 0.00 | 0.00 | 0.00 | 49 | 1016.0 |
| 20260904190830 | 36 | 290 | 3.2 | 19.3 | 0.00 | 0.00 | 0.00 | 49 | 1016.3 |
| 20260904185815 | 36 | 341 | 4.8 | 14.5 | 0.00 | 0.00 | 0.00 | 47 | 1016.3 |
| 20260904184818 | 35 | 304 | 4.8 | 16.1 | 0.00 | 0.00 | 0.00 | 51 | 1016.5 |
| 20260904183837 | 35 | 304 | 9.7 | 20.9 | 0.00 | 0.00 | 0.00 | 49 | 1016.6 |
| 20260904182830 | 36 | 296 | 4.8 | 14.5 | 0.00 | 0.00 | 0.00 | 49 | 1016.7 |
| 20260904181821 | 36 | 299 | 4.8 | 12.9 | 0.00 | 0.00 | 0.00 | 49 | 1016.7 |
| 20260904180839 | 35 | 285 | 4.8 | 24.1 | 0.00 | 0.00 | 0.00 | 50 | 1016.9 |
| 20260904175841 | 35 | 292 | 6.4 | 14.5 | 0.00 | 0.00 | 0.00 | 50 | 1017.1 |
| 20260904174824 | 35 | 325 | 8.0 | 17.7 | 0.00 | 0.00 | 0.00 | 50 | 1017.4 |
| 20260904173843 | 35 | 321 | 3.2 | 14.5 | 0.00 | 0.00 | 0.00 | 51 | 1017.5 |
| 20260904172814 | 35 | 213 | 3.2 | 12.9 | 0.00 | 0.00 | 0.00 | 51 | 1017.6 |
| 20260904171852 | 34 | 206 | 8.0 | 22.5 | 0.00 | 0.00 | 0.00 | 52 | 1017.6 |
| 20260904170820 | 34 | 328 | 6.4 | 20.9 | 0.00 | 0.00 | 0.00 | 54 | 1017.7 |
| 20260904165843 | 33 | 293 | 3.2 | 19.3 | 0.00 | 0.00 | 0.00 | 54 | 1017.8 |
| 20260904164823 | 34 | 313 | 6.4 | 22.5 | 0.00 | 0.00 | 0.00 | 55 | 1017.8 |
| 20260904163840 | 33 | 304 | 9.7 | 20.9 | 0.00 | 0.00 | 0.00 | 55 | 1017.9 |